createdAt,value
2023-04-30T00:09:21.075Z,61.32
2023-04-30T00:24:23.753Z,60.57
2023-04-30T00:39:26.377Z,61.20
2023-04-30T00:54:29.280Z,60.63
2023-04-30T01:09:32.233Z,60.92
2023-04-30T01:24:56.339Z,59.43
2023-04-30T01:40:21.291Z,62.87
2023-04-30T01:55:36.075Z,62.94
2023-04-30T02:10:38.822Z,62.81
2023-04-30T02:25:41.810Z,63.00
2023-04-30T02:40:44.474Z,63.16
2023-04-30T02:55:47.368Z,62.47
2023-04-30T03:10:49.983Z,63.30
2023-04-30T03:25:52.808Z,64.93
2023-04-30T03:40:56.150Z,64.30
2023-04-30T03:55:58.899Z,64.27
2023-04-30T04:11:01.736Z,59.55
2023-04-30T04:26:04.388Z,55.28
2023-04-30T04:41:06.916Z,52.94
2023-04-30T04:56:14.714Z,50.53
2023-04-30T05:11:17.485Z,47.01
2023-04-30T05:26:20.088Z,44.85
2023-04-30T05:41:22.791Z,43.29
2023-04-30T05:56:25.760Z,37.16
2023-04-30T06:11:30.007Z,33.89
2023-04-30T06:26:32.728Z,31.54
2023-04-30T06:41:35.365Z,33.53
2023-04-30T06:56:38.033Z,29.48
2023-04-30T07:11:40.723Z,32.84
2023-04-30T07:26:43.421Z,30.39
2023-04-30T07:41:46.124Z,32.61
2023-04-30T07:56:48.963Z,33.66
2023-04-30T08:11:51.906Z,30.04
2023-04-30T08:26:54.948Z,33.62
2023-04-30T08:42:05.909Z,33.60
2023-04-30T08:57:08.747Z,30.91
2023-04-30T09:12:18.417Z,30.59
2023-04-30T09:27:23.004Z,29.55
2023-04-30T09:42:25.771Z,31.73
2023-04-30T09:57:32.340Z,29.65
2023-04-30T10:12:51.466Z,30.43
2023-04-30T10:27:54.122Z,29.64
2023-04-30T10:42:56.897Z,30.17
2023-04-30T10:57:59.820Z,32.36
2023-04-30T11:13:07.644Z,36.22
2023-04-30T11:28:19.615Z,35.16
2023-04-30T11:43:23.021Z,36.68
2023-04-30T11:58:26.374Z,37.76
2023-04-30T12:13:31.952Z,37.34
2023-04-30T12:28:35.409Z,38.41
2023-04-30T12:43:38.004Z,37.75
2023-04-30T12:58:49.680Z,37.90
2023-04-30T13:13:52.396Z,38.18
2023-04-30T13:28:55.555Z,38.15
2023-04-30T13:43:59.991Z,38.79
2023-04-30T13:59:03.076Z,39.35
2023-04-30T14:14:06.044Z,39.72
2023-04-30T14:29:09.703Z,39.52
2023-04-30T14:44:12.424Z,39.92
2023-04-30T14:59:15.581Z,39.47
2023-04-30T15:14:18.574Z,39.58
2023-04-30T15:29:21.915Z,38.94
2023-04-30T15:44:24.540Z,39.03
2023-04-30T15:59:27.661Z,39.09
2023-04-30T16:14:30.982Z,40.65
2023-04-30T16:29:33.704Z,41.12
2023-04-30T16:44:36.950Z,41.08
2023-04-30T16:59:39.524Z,41.82
2023-04-30T17:14:42.139Z,41.99
2023-04-30T17:29:44.895Z,42.11
2023-04-30T17:44:48.826Z,42.44
2023-04-30T17:59:51.465Z,42.78
2023-04-30T18:14:54.143Z,43.10
2023-04-30T18:29:57.028Z,45.13
2023-04-30T18:45:05.790Z,45.53
2023-04-30T19:00:09.879Z,45.12
2023-04-30T19:15:14.995Z,47.14
2023-04-30T19:30:17.735Z,47.79
2023-04-30T19:45:21.251Z,48.59
2023-04-30T20:00:26.089Z,50.24
2023-04-30T20:15:28.814Z,52.48
2023-04-30T20:30:32.942Z,55.47
2023-04-30T20:45:36.363Z,56.76
2023-04-30T21:00:39.275Z,56.01
2023-04-30T21:15:43.120Z,58.09
2023-04-30T21:30:45.854Z,59.06
2023-04-30T21:45:49.096Z,58.68
2023-04-30T22:00:52.635Z,60.64
2023-04-30T22:15:55.890Z,59.15
2023-04-30T22:30:59.808Z,60.11
2023-04-30T22:46:03.341Z,58.61
2023-04-30T23:01:06.051Z,59.39
2023-04-30T23:16:10.430Z,63.30
2023-04-30T23:31:13.262Z,55.29
2023-04-30T23:46:16.459Z,53.88
